Time;durP1;ratioP1;P1;durP2;ratioP2;P2;SDS_P1;SDS_P2;PMS_P1;PMS_P2;Temp;Humidity;BMP_temperature;BMP_pressure;BME280_temperature;BME280_humidity;BME280_pressure;Samples;Min_cycle;Max_cycle;Signal;HPM_P1;HPM_P2
2023/09/25 00:00:18;;;;;;;;;;;24.80;99.90;;;;;;5033070;28;20405;-48
2023/09/25 00:02:43;;;;;;;;;;;24.80;99.90;;;;;;5032345;28;19917;-48
2023/09/25 00:05:09;;;;;;;;;;;24.70;99.90;;;;;;5032539;28;19905;-48
2023/09/25 00:07:35;;;;;;;;;;;24.80;99.90;;;;;;5032140;28;19912;-49
2023/09/25 00:10:00;;;;;;;;;;;24.70;99.90;;;;;;5032308;28;19905;-49
2023/09/25 00:12:26;;;;;;;;;;;24.70;99.90;;;;;;5031999;28;19974;-49
2023/09/25 00:14:52;;;;;;;;;;;24.70;99.90;;;;;;5032310;28;20355;-49
2023/09/25 00:17:17;;;;;;;;;;;24.70;99.90;;;;;;5032152;28;20393;-49
2023/09/25 00:19:43;;;;;;;;;;;24.70;99.90;;;;;;5032103;28;19939;-49
2023/09/25 00:22:09;;;;;;;;;;;24.70;99.90;;;;;;5032765;28;19912;-49
2023/09/25 00:24:34;;;;;;;;;;;24.70;99.90;;;;;;5032049;28;19912;-49
2023/09/25 00:27:00;;;;;;;;;;;24.60;99.90;;;;;;5032205;28;19909;-50
2023/09/25 00:29:26;;;;;;;;;;;24.70;99.90;;;;;;5031947;28;20390;-49
2023/09/25 00:31:51;;;;;;;;;;;24.70;99.90;;;;;;5032129;28;19905;-49
2023/09/25 00:34:17;;;;;;;;;;;24.60;99.90;;;;;;5031977;28;19905;-50
2023/09/25 00:36:44;;;;;;;;;;;24.60;99.90;;;;;;5032226;28;19909;-49
2023/09/25 00:39:09;;;;;;;;;;;24.60;99.90;;;;;;5032157;28;19932;-49
2023/09/25 00:41:35;;;;;;;;;;;24.60;99.90;;;;;;5031754;28;19905;-49
2023/09/25 00:44:01;;;;;;;;;;;24.60;99.90;;;;;;5032021;28;19905;-49
2023/09/25 00:46:26;;;;;;;;;;;24.60;99.90;;;;;;5034357;28;19905;-49
2023/09/25 00:48:52;;;;;;;;;;;24.60;99.90;;;;;;5035905;28;19999;-49
2023/09/25 00:51:18;;;;;;;;;;;24.60;99.90;;;;;;5035703;28;19905;-49
2023/09/25 00:53:45;;;;;;;;;;;24.50;99.90;;;;;;5035972;28;20370;-49
2023/09/25 00:56:10;;;;;;;;;;;24.60;99.90;;;;;;5035844;28;19905;-49
2023/09/25 00:58:36;;;;;;;;;;;24.50;99.90;;;;;;5035445;28;20366;-49
2023/09/25 01:01:02;;;;;;;;;;;24.50;99.90;;;;;;5036084;28;20279;-48
2023/09/25 01:03:30;;;;;;;;;;;24.50;99.90;;;;;;5035513;28;19905;-49
2023/09/25 01:05:56;;;;;;;;;;;24.50;99.90;;;;;;5035475;28;19905;-49
2023/09/25 01:08:21;;;;;;;;;;;24.50;99.90;;;;;;5035656;28;19905;-49
2023/09/25 01:10:49;;;;;;;;;;;24.50;99.90;;;;;;5035211;28;19909;-49
2023/09/25 01:13:15;;;;;;;;;;;24.50;99.90;;;;;;5035677;28;19909;-49
2023/09/25 01:15:41;;;;;;;;;;;24.50;99.90;;;;;;5035330;28;19958;-49
2023/09/25 01:18:07;;;;;;;;;;;24.40;99.90;;;;;;5035288;28;19983;-49
2023/09/25 01:20:33;;;;;;;;;;;24.40;99.90;;;;;;5035200;28;20016;-49
2023/09/25 01:22:59;;;;;;;;;;;24.40;99.90;;;;;;5034961;28;20415;-49
2023/09/25 01:25:24;;;;;;;;;;;24.40;99.90;;;;;;5035059;28;19950;-49
2023/09/25 01:27:50;;;;;;;;;;;24.40;99.90;;;;;;5034842;28;19905;-49
2023/09/25 01:30:17;;;;;;;;;;;24.30;99.90;;;;;;5035343;28;19905;-49
2023/09/25 01:32:44;;;;;;;;;;;24.30;99.90;;;;;;5017424;28;19908;-49
2023/09/25 01:35:23;;;;;;;;;;;24.30;99.90;;;;;;5034973;28;20286;-49
2023/09/25 01:37:49;;;;;;;;;;;24.30;99.90;;;;;;5034736;28;20370;-49
2023/09/25 01:40:17;;;;;;;;;;;24.30;99.90;;;;;;5017180;28;19913;-49
2023/09/25 01:42:44;;;;;;;;;;;24.30;99.90;;;;;;5032918;28;19912;-49
2023/09/25 01:45:10;;;;;;;;;;;24.30;99.90;;;;;;5016508;28;19905;-49
2023/09/25 01:47:37;;;;;;;;;;;24.30;99.90;;;;;;5024439;28;20353;-49
2023/09/25 01:50:03;;;;;;;;;;;24.30;99.90;;;;;;5032502;28;19909;-49
2023/09/25 01:52:29;;;;;;;;;;;24.30;99.90;;;;;;5034921;28;20270;-49
2023/09/25 01:54:55;;;;;;;;;;;24.30;99.90;;;;;;5034436;28;19905;-48
2023/09/25 01:57:21;;;;;;;;;;;24.20;99.90;;;;;;5033594;28;19905;-49
2023/09/25 01:59:47;;;;;;;;;;;24.20;99.90;;;;;;5034709;28;19913;-49
2023/09/25 02:02:13;;;;;;;;;;;24.20;99.90;;;;;;5014530;23;19957;-55
2023/09/25 02:04:38;;;;;;;;;;;24.20;99.90;;;;;;4993881;28;19910;-55
2023/09/25 02:07:04;;;;;;;;;;;24.20;99.90;;;;;;4995019;28;19954;-55
2023/09/25 02:09:30;;;;;;;;;;;24.20;99.90;;;;;;4995104;28;19976;-55
2023/09/25 02:11:55;;;;;;;;;;;24.20;99.90;;;;;;4995096;28;19912;-55
2023/09/25 02:14:21;;;;;;;;;;;24.20;99.90;;;;;;4993581;28;19912;-55
2023/09/25 02:16:46;;;;;;;;;;;24.10;99.90;;;;;;4993805;28;19912;-55
2023/09/25 02:19:12;;;;;;;;;;;24.20;99.90;;;;;;4994700;28;19917;-54
2023/09/25 02:21:38;;;;;;;;;;;24.10;99.90;;;;;;4994774;28;20001;-57
2023/09/25 02:24:03;;;;;;;;;;;24.10;99.90;;;;;;4995220;28;20386;-52
2023/09/25 02:26:29;;;;;;;;;;;24.10;99.90;;;;;;4994571;28;19952;-54
2023/09/25 02:28:55;;;;;;;;;;;24.10;99.90;;;;;;4994629;28;20421;-54
2023/09/25 02:31:20;;;;;;;;;;;24.10;99.90;;;;;;4994552;28;19984;-56
2023/09/25 02:33:46;;;;;;;;;;;24.10;99.90;;;;;;4994876;28;20370;-54
2023/09/25 02:36:12;;;;;;;;;;;24.10;99.90;;;;;;4994456;28;20455;-54
2023/09/25 02:38:38;;;;;;;;;;;24.10;99.90;;;;;;4994563;28;19948;-55
2023/09/25 02:41:04;;;;;;;;;;;24.10;99.90;;;;;;4994352;28;19913;-55
2023/09/25 02:43:29;;;;;;;;;;;24.10;99.90;;;;;;4994212;28;19905;-55
2023/09/25 02:45:55;;;;;;;;;;;24.10;99.90;;;;;;4994227;28;20368;-54
2023/09/25 02:48:23;;;;;;;;;;;24.10;99.90;;;;;;4994132;28;19906;-55
2023/09/25 02:50:49;;;;;;;;;;;24.00;99.90;;;;;;4994344;28;20287;-55
2023/09/25 02:53:18;;;;;;;;;;;24.00;99.90;;;;;;4993952;28;19906;-55
2023/09/25 02:55:50;;;;;;;;;;;24.00;99.90;;;;;;4993991;28;20000;-54
2023/09/25 02:58:15;;;;;;;;;;;24.00;99.90;;;;;;4994157;28;20279;-54
2023/09/25 03:00:41;;;;;;;;;;;24.00;99.90;;;;;;5014127;23;19992;-62
2023/09/25 03:03:07;;;;;;;;;;;24.00;99.90;;;;;;5033280;28;19921;-62
2023/09/25 03:05:32;;;;;;;;;;;24.00;99.90;;;;;;5033031;28;19909;-63
2023/09/25 03:07:58;;;;;;;;;;;24.00;99.90;;;;;;5032256;28;19912;-63
2023/09/25 03:10:23;;;;;;;;;;;24.00;99.90;;;;;;5033070;28;19955;-64
2023/09/25 03:12:49;;;;;;;;;;;24.00;99.90;;;;;;5033098;28;20279;-63
2023/09/25 03:15:15;;;;;;;;;;;24.00;99.90;;;;;;5033086;28;19912;-63
2023/09/25 03:17:40;;;;;;;;;;;24.00;99.90;;;;;;5032858;28;19905;-63
2023/09/25 03:20:14;;;;;;;;;;;24.00;99.90;;;;;;5032941;28;19959;-63
2023/09/25 03:22:40;;;;;;;;;;;24.00;99.90;;;;;;5032916;28;20356;-64
2023/09/25 03:25:06;;;;;;;;;;;24.00;99.90;;;;;;5032917;28;19905;-63
2023/09/25 03:27:32;;;;;;;;;;;24.10;99.90;;;;;;5032858;28;19974;-64
2023/09/25 03:29:57;;;;;;;;;;;24.00;99.90;;;;;;5032933;28;19970;-63
2023/09/25 03:32:23;;;;;;;;;;;24.10;99.90;;;;;;5032855;28;20412;-64
2023/09/25 03:34:49;;;;;;;;;;;24.10;99.90;;;;;;5032798;28;19990;-63
2023/09/25 03:37:14;;;;;;;;;;;24.10;99.90;;;;;;5032723;28;19909;-61
2023/09/25 03:39:40;;;;;;;;;;;24.20;99.90;;;;;;5032547;28;19913;-63
2023/09/25 03:42:05;;;;;;;;;;;24.20;99.90;;;;;;5032761;28;20389;-63
2023/09/25 03:44:31;;;;;;;;;;;24.30;99.90;;;;;;5032525;28;19912;-63
2023/09/25 03:46:57;;;;;;;;;;;24.40;99.90;;;;;;5032584;28;19905;-62
2023/09/25 03:49:23;;;;;;;;;;;24.40;99.90;;;;;;5032791;28;19905;-62
2023/09/25 03:51:48;;;;;;;;;;;24.50;99.90;;;;;;5022423;28;19915;-62
2023/09/25 03:54:14;;;;;;;;;;;24.50;99.90;;;;;;5031569;28;19908;-61
2023/09/25 03:56:39;;;;;;;;;;;24.50;99.90;;;;;;5012508;28;20401;-61
2023/09/25 03:59:06;;;;;;;;;;;24.60;99.90;;;;;;5013493;28;20005;-61
2023/09/25 04:01:31;;;;;;;;;;;24.60;99.90;;;;;;5031820;28;20437;-62
2023/09/25 04:03:57;;;;;;;;;;;24.70;99.90;;;;;;5032291;28;19905;-61
2023/09/25 04:06:22;;;;;;;;;;;24.70;99.90;;;;;;5032550;28;19905;-61
2023/09/25 04:08:48;;;;;;;;;;;24.70;99.90;;;;;;5032152;28;20283;-62
2023/09/25 04:11:14;;;;;;;;;;;24.70;99.90;;;;;;5031105;28;19917;-62
2023/09/25 04:13:40;;;;;;;;;;;24.70;99.90;;;;;;5032306;28;19995;-62
2023/09/25 04:16:06;;;;;;;;;;;24.70;99.90;;;;;;5032167;28;19905;-62
2023/09/25 04:18:32;;;;;;;;;;;24.80;99.90;;;;;;5032409;28;19912;-62
2023/09/25 04:21:05;;;;;;;;;;;24.80;99.90;;;;;;5035345;28;19917;-62
2023/09/25 04:23:31;;;;;;;;;;;24.80;99.90;;;;;;5036356;28;19905;-61
2023/09/25 04:26:00;;;;;;;;;;;24.90;99.90;;;;;;5036280;28;19905;-62
2023/09/25 04:28:28;;;;;;;;;;;24.80;99.90;;;;;;5036241;28;19905;-62
2023/09/25 04:30:54;;;;;;;;;;;24.90;99.90;;;;;;5036387;28;20351;-62
2023/09/25 04:33:20;;;;;;;;;;;24.90;99.90;;;;;;5036129;28;19909;-62
2023/09/25 04:35:46;;;;;;;;;;;24.90;99.90;;;;;;5036073;28;19960;-62
2023/09/25 04:38:12;;;;;;;;;;;25.00;99.90;;;;;;5035836;28;19995;-62
2023/09/25 04:40:38;;;;;;;;;;;25.00;99.90;;;;;;5018146;28;20012;-62
2023/09/25 04:43:03;;;;;;;;;;;25.00;99.90;;;;;;5035793;28;19961;-62
2023/09/25 04:45:29;;;;;;;;;;;25.00;99.90;;;;;;5036094;28;19905;-62
2023/09/25 04:47:55;;;;;;;;;;;25.00;99.90;;;;;;5035932;28;19948;-62
2023/09/25 04:50:22;;;;;;;;;;;25.00;99.90;;;;;;5035587;28;20367;-62
2023/09/25 04:52:48;;;;;;;;;;;25.00;99.90;;;;;;5017903;28;19909;-62
2023/09/25 04:55:14;;;;;;;;;;;25.00;99.90;;;;;;5035451;28;20028;-62
2023/09/25 04:57:40;;;;;;;;;;;25.00;99.90;;;;;;5035806;28;20363;-62
2023/09/25 05:00:15;;;;;;;;;;;25.10;99.90;;;;;;5035578;28;19913;-62
2023/09/25 05:02:43;;;;;;;;;;;25.10;99.90;;;;;;5035312;28;19924;-62
2023/09/25 05:05:08;;;;;;;;;;;25.10;99.90;;;;;;5035556;28;20355;-62
2023/09/25 05:07:35;;;;;;;;;;;25.10;99.90;;;;;;5035350;28;19955;-62
2023/09/25 05:10:00;;;;;;;;;;;25.10;99.90;;;;;;5035512;28;19944;-62
2023/09/25 05:12:26;;;;;;;;;;;25.00;99.90;;;;;;5035458;28;19952;-62
2023/09/25 05:14:52;;;;;;;;;;;25.10;99.90;;;;;;5035372;28;19912;-62
2023/09/25 05:17:18;;;;;;;;;;;25.10;99.90;;;;;;5035267;28;19913;-62
2023/09/25 05:19:43;;;;;;;;;;;25.10;99.90;;;;;;5035322;28;19913;-62
2023/09/25 05:22:09;;;;;;;;;;;25.10;99.90;;;;;;5035206;28;19952;-62
2023/09/25 05:24:35;;;;;;;;;;;25.10;99.90;;;;;;5035014;28;19940;-62
2023/09/25 05:27:01;;;;;;;;;;;25.10;99.90;;;;;;5035029;28;20279;-62
2023/09/25 05:29:27;;;;;;;;;;;25.10;99.90;;;;;;5035248;28;19959;-61
2023/09/25 05:31:52;;;;;;;;;;;25.10;99.90;;;;;;5033934;28;20004;-62
2023/09/25 05:34:18;;;;;;;;;;;25.10;99.90;;;;;;5034848;28;19912;-62
2023/09/25 05:36:45;;;;;;;;;;;25.10;99.90;;;;;;5035013;28;19999;-62
2023/09/25 05:39:10;;;;;;;;;;;25.10;99.90;;;;;;5034834;28;19917;-62
2023/09/25 05:41:36;;;;;;;;;;;25.10;99.90;;;;;;5016794;28;20264;-62
2023/09/25 05:44:02;;;;;;;;;;;25.10;99.90;;;;;;5034688;28;19905;-62
2023/09/25 05:46:27;;;;;;;;;;;25.10;99.90;;;;;;5034855;28;20295;-62
2023/09/25 05:48:53;;;;;;;;;;;25.10;99.90;;;;;;5034624;28;19948;-62
2023/09/25 05:51:19;;;;;;;;;;;25.20;99.90;;;;;;5034562;28;20351;-62
2023/09/25 05:53:44;;;;;;;;;;;25.10;99.90;;;;;;5034737;28;19963;-62
2023/09/25 05:56:10;;;;;;;;;;;25.10;99.90;;;;;;5016488;28;19958;-62
2023/09/25 05:58:37;;;;;;;;;;;25.10;99.90;;;;;;5034429;28;20027;-62
2023/09/25 06:01:02;;;;;;;;;;;25.10;99.90;;;;;;5034271;28;19970;-62
2023/09/25 06:03:28;;;;;;;;;;;25.10;99.90;;;;;;5034738;28;19999;-62
2023/09/25 06:05:54;;;;;;;;;;;25.10;99.90;;;;;;5016523;28;19909;-62
2023/09/25 06:08:19;;;;;;;;;;;25.10;99.90;;;;;;5034291;28;19912;-62
2023/09/25 06:10:45;;;;;;;;;;;25.10;99.90;;;;;;5034199;28;19905;-62
2023/09/25 06:13:11;;;;;;;;;;;25.10;99.90;;;;;;5034550;28;19996;-62
2023/09/25 06:15:37;;;;;;;;;;;25.10;99.90;;;;;;5034121;28;19944;-62
2023/09/25 06:18:09;;;;;;;;;;;25.10;99.90;;;;;;5034173;28;19905;-62
2023/09/25 06:20:39;;;;;;;;;;;25.10;99.90;;;;;;5034087;28;19917;-62
2023/09/25 06:23:05;;;;;;;;;;;25.10;99.90;;;;;;5034095;28;19909;-62
2023/09/25 06:25:32;;;;;;;;;;;25.10;99.90;;;;;;5016524;28;20355;-62
2023/09/25 06:27:58;;;;;;;;;;;25.10;99.90;;;;;;5034074;28;19959;-62
2023/09/25 06:30:24;;;;;;;;;;;25.10;99.90;;;;;;5033961;28;19955;-62
2023/09/25 06:32:50;;;;;;;;;;;25.20;99.90;;;;;;5033793;28;20232;-62
2023/09/25 06:35:15;;;;;;;;;;;25.10;99.90;;;;;;5034009;28;19948;-62
2023/09/25 06:37:41;;;;;;;;;;;25.20;99.90;;;;;;5033845;28;19952;-62
2023/09/25 06:40:10;;;;;;;;;;;25.20;99.90;;;;;;5015792;28;19963;-62
2023/09/25 06:42:37;;;;;;;;;;;25.20;99.90;;;;;;5016203;28;19905;-62
2023/09/25 06:45:03;;;;;;;;;;;25.10;99.90;;;;;;5033973;28;20256;-62
2023/09/25 06:47:29;;;;;;;;;;;25.20;99.90;;;;;;5033855;28;19916;-62
2023/09/25 06:49:54;;;;;;;;;;;25.20;99.90;;;;;;5033460;28;19909;-62
2023/09/25 06:52:20;;;;;;;;;;;25.20;99.90;;;;;;5033451;28;20275;-62
2023/09/25 06:54:45;;;;;;;;;;;25.20;99.90;;;;;;5033296;28;19912;-62
2023/09/25 06:57:11;;;;;;;;;;;25.20;99.90;;;;;;5033240;28;19959;-62
2023/09/25 06:59:37;;;;;;;;;;;25.20;99.90;;;;;;5033426;28;20022;-62
2023/09/25 07:02:03;;;;;;;;;;;25.20;99.90;;;;;;5033311;28;19917;-62
2023/09/25 07:04:28;;;;;;;;;;;25.30;99.90;;;;;;5033490;28;19911;-62
2023/09/25 07:06:56;;;;;;;;;;;25.30;99.90;;;;;;5015676;28;20387;-62
2023/09/25 07:09:22;;;;;;;;;;;25.30;99.90;;;;;;5033003;28;19935;-62
2023/09/25 07:11:48;;;;;;;;;;;25.30;99.90;;;;;;5033158;28;19912;-62
2023/09/25 07:14:14;;;;;;;;;;;25.30;99.90;;;;;;5032914;28;19917;-62
2023/09/25 07:16:40;;;;;;;;;;;25.30;99.90;;;;;;5015340;28;19967;-62
2023/09/25 07:19:08;;;;;;;;;;;25.30;99.90;;;;;;5032777;28;20375;-62
2023/09/25 07:21:35;;;;;;;;;;;25.30;99.90;;;;;;5033186;28;19916;-63
2023/09/25 07:24:01;;;;;;;;;;;25.30;99.90;;;;;;5033319;28;20299;-62
2023/09/25 07:26:27;;;;;;;;;;;25.40;99.90;;;;;;5014989;28;19912;-62
2023/09/25 07:28:52;;;;;;;;;;;25.40;99.90;;;;;;5032825;28;19947;-63
2023/09/25 07:31:19;;;;;;;;;;;25.40;99.90;;;;;;5032838;28;19912;-62
2023/09/25 07:33:44;;;;;;;;;;;25.40;99.90;;;;;;5032903;28;19909;-62
2023/09/25 07:36:10;;;;;;;;;;;25.40;99.90;;;;;;5032446;28;19906;-62
2023/09/25 07:38:36;;;;;;;;;;;25.40;99.90;;;;;;5032770;28;19909;-63
2023/09/25 07:41:01;;;;;;;;;;;25.40;99.90;;;;;;5032746;28;19917;-62
2023/09/25 07:43:29;;;;;;;;;;;25.50;99.90;;;;;;5032532;28;19905;-62
2023/09/25 07:45:55;;;;;;;;;;;25.40;99.90;;;;;;5032663;28;19909;-63
2023/09/25 07:48:21;;;;;;;;;;;25.50;99.90;;;;;;5032468;28;19912;-63
2023/09/25 07:50:46;;;;;;;;;;;25.50;99.90;;;;;;5032456;28;19992;-63
2023/09/25 07:53:13;;;;;;;;;;;25.50;99.90;;;;;;5032270;28;19905;-63
2023/09/25 07:55:39;;;;;;;;;;;25.50;99.90;;;;;;5031647;28;20326;-63
2023/09/25 07:58:06;;;;;;;;;;;25.60;99.90;;;;;;5032529;28;20008;-62
2023/09/25 08:00:39;;;;;;;;;;;25.60;99.90;;;;;;5032097;28;19920;-62
2023/09/25 08:03:06;;;;;;;;;;;25.60;99.90;;;;;;5032779;28;20363;-62
2023/09/25 08:05:32;;;;;;;;;;;25.70;99.90;;;;;;5014581;28;19905;-63
2023/09/25 08:07:57;;;;;;;;;;;25.70;99.90;;;;;;5032228;28;20410;-62
2023/09/25 08:10:23;;;;;;;;;;;25.70;99.90;;;;;;5032140;28;20386;-62
2023/09/25 08:12:49;;;;;;;;;;;25.80;99.90;;;;;;5032042;28;20420;-62
2023/09/25 08:15:15;;;;;;;;;;;25.80;99.90;;;;;;5032196;28;20005;-63
2023/09/25 08:17:44;;;;;;;;;;;25.80;99.90;;;;;;5014345;28;19905;-63
2023/09/25 08:20:22;;;;;;;;;;;25.80;99.90;;;;;;5031947;28;20385;-62
2023/09/25 08:22:51;;;;;;;;;;;25.80;99.90;;;;;;5031855;28;20256;-62
2023/09/25 08:25:17;;;;;;;;;;;25.90;99.90;;;;;;5031940;28;19905;-62
2023/09/25 08:27:43;;;;;;;;;;;25.90;99.90;;;;;;5031943;28;20299;-62
2023/09/25 08:30:09;;;;;;;;;;;25.90;99.90;;;;;;5032145;28;19905;-62
2023/09/25 08:32:35;;;;;;;;;;;26.00;99.90;;;;;;5032181;28;19913;-62
2023/09/25 08:35:01;;;;;;;;;;;26.00;99.90;;;;;;5032202;28;19905;-63
2023/09/25 08:37:27;;;;;;;;;;;26.10;99.90;;;;;;5031947;28;20327;-63
2023/09/25 08:39:53;;;;;;;;;;;26.10;99.90;;;;;;5031799;28;20360;-63
2023/09/25 08:42:22;;;;;;;;;;;26.10;99.90;;;;;;5031869;28;20004;-63
2023/09/25 08:44:50;;;;;;;;;;;26.20;99.90;;;;;;5031689;28;20349;-63
2023/09/25 08:47:16;;;;;;;;;;;26.20;99.90;;;;;;5032097;28;20331;-62
2023/09/25 08:49:42;;;;;;;;;;;26.20;99.90;;;;;;5031628;28;19916;-62
2023/09/25 08:52:08;;;;;;;;;;;26.30;99.90;;;;;;5032117;28;19997;-62
2023/09/25 08:54:35;;;;;;;;;;;26.30;99.90;;;;;;5031788;28;20518;-62
2023/09/25 08:57:01;;;;;;;;;;;26.40;99.90;;;;;;5013845;28;20375;-62
2023/09/25 08:59:27;;;;;;;;;;;26.40;99.90;;;;;;5031660;28;19909;-62
2023/09/25 09:01:53;;;;;;;;;;;26.40;99.90;;;;;;5031615;28;19924;-62
2023/09/25 09:04:22;;;;;;;;;;;26.50;99.90;;;;;;5031517;28;20271;-62
2023/09/25 09:06:47;;;;;;;;;;;26.50;99.90;;;;;;5034279;28;19904;-62
2023/09/25 09:09:13;;;;;;;;;;;26.60;99.90;;;;;;5035226;28;20286;-62
2023/09/25 09:11:48;;;;;;;;;;;26.60;99.90;;;;;;5035710;28;19909;-62
2023/09/25 09:14:13;;;;;;;;;;;26.60;99.90;;;;;;5021285;28;19913;-62
2023/09/25 09:16:39;;;;;;;;;;;26.70;99.90;;;;;;5017770;28;19905;-62
2023/09/25 09:19:08;;;;;;;;;;;26.70;99.90;;;;;;5035104;28;19916;-63
2023/09/25 09:21:33;;;;;;;;;;;26.70;99.90;;;;;;5035306;28;19952;-62
2023/09/25 09:23:59;;;;;;;;;;;26.80;99.90;;;;;;5035212;28;19940;-63
2023/09/25 09:26:25;;;;;;;;;;;26.80;99.90;;;;;;5017208;28;19909;-62
2023/09/25 09:28:53;;;;;;;;;;;26.90;99.90;;;;;;5035041;28;19909;-62
2023/09/25 09:31:20;;;;;;;;;;;27.00;99.90;;;;;;5034885;28;19952;-62
2023/09/25 09:33:46;;;;;;;;;;;27.00;99.90;;;;;;5035195;28;20275;-62
2023/09/25 09:36:13;;;;;;;;;;;27.10;99.90;;;;;;5034899;28;19905;-62
2023/09/25 09:38:42;;;;;;;;;;;27.10;99.90;;;;;;5035064;28;19912;-63
2023/09/25 09:41:08;;;;;;;;;;;27.20;99.90;;;;;;5034851;28;19913;-63
2023/09/25 09:43:34;;;;;;;;;;;27.20;99.90;;;;;;5034694;28;19911;-62
2023/09/25 09:46:00;;;;;;;;;;;27.30;99.90;;;;;;5034718;28;19908;-62
2023/09/25 09:48:28;;;;;;;;;;;27.30;99.90;;;;;;5034563;28;19916;-62
2023/09/25 09:50:59;;;;;;;;;;;27.40;99.90;;;;;;5034650;28;19944;-62
2023/09/25 09:53:26;;;;;;;;;;;27.50;99.90;;;;;;5034526;28;19963;-61
2023/09/25 09:55:52;;;;;;;;;;;27.50;99.90;;;;;;5034509;28;19909;-61
2023/09/25 09:58:18;;;;;;;;;;;27.60;99.90;;;;;;5034547;28;19905;-61
2023/09/25 10:00:44;;;;;;;;;;;27.60;99.90;;;;;;5034114;28;19913;-61
2023/09/25 10:03:10;;;;;;;;;;;27.70;99.90;;;;;;5034631;28;19920;-62
2023/09/25 10:05:43;;;;;;;;;;;27.70;99.90;;;;;;5034281;28;19908;-62
2023/09/25 10:08:10;;;;;;;;;;;27.70;99.90;;;;;;5034417;28;19940;-62
2023/09/25 10:10:36;;;;;;;;;;;27.80;99.90;;;;;;5034148;28;20002;-62
2023/09/25 10:13:06;;;;;;;;;;;27.80;99.90;;;;;;5016500;28;19909;-62
2023/09/25 10:15:32;;;;;;;;;;;27.90;99.90;;;;;;5034201;28;19905;-62
2023/09/25 10:17:58;;;;;;;;;;;27.90;99.90;;;;;;5033497;28;20433;-61
2023/09/25 10:20:30;;;;;;;;;;;28.00;99.90;;;;;;5034167;28;20524;-59
2023/09/25 10:23:15;;;;;;;;;;;28.00;99.90;;;;;;5016275;28;19996;-59
2023/09/25 10:25:46;;;;;;;;;;;28.20;99.90;;;;;;5032969;28;19911;-60
2023/09/25 10:28:21;;;;;;;;;;;28.30;99.90;;;;;;5034045;28;19909;-60
2023/09/25 10:30:48;;;;;;;;;;;28.40;99.90;;;;;;5033889;28;19905;-61
2023/09/25 10:33:15;;;;;;;;;;;28.50;99.90;;;;;;5033818;28;20359;-59
2023/09/25 10:35:40;;;;;;;;;;;28.50;99.90;;;;;;5033908;28;19912;-58
2023/09/25 10:38:08;;;;;;;;;;;28.70;99.90;;;;;;5027202;28;19909;-57
2023/09/25 10:40:35;;;;;;;;;;;28.70;99.90;;;;;;5030937;28;20393;-57
2023/09/25 10:43:01;;;;;;;;;;;28.80;99.90;;;;;;5013113;28;19909;-60
2023/09/25 10:45:27;;;;;;;;;;;28.80;99.90;;;;;;5030292;28;20382;-59
2023/09/25 10:47:52;;;;;;;;;;;28.90;99.90;;;;;;5031074;28;19924;-59
2023/09/25 10:50:18;;;;;;;;;;;28.90;99.90;;;;;;5029999;28;20421;-59
2023/09/25 10:52:44;;;;;;;;;;;29.00;99.90;;;;;;5031250;28;19905;-60
2023/09/25 10:55:10;;;;;;;;;;;29.10;99.90;;;;;;5031354;28;20374;-59
2023/09/25 10:57:36;;;;;;;;;;;29.10;99.90;;;;;;5028885;28;19913;-60
2023/09/25 11:00:09;;;;;;;;;;;29.20;99.90;;;;;;5013029;28;19980;-60
2023/09/25 11:02:35;;;;;;;;;;;29.20;99.90;;;;;;5030125;28;20341;-60
2023/09/25 11:05:02;;;;;;;;;;;29.20;99.90;;;;;;5012959;28;19905;-58
2023/09/25 11:07:28;;;;;;;;;;;29.30;99.90;;;;;;5025486;28;19946;-58
2023/09/25 11:09:54;;;;;;;;;;;29.30;99.90;;;;;;5013022;28;19905;-57
2023/09/25 11:12:19;;;;;;;;;;;29.40;99.90;;;;;;5012646;28;20359;-57
2023/09/25 11:14:45;;;;;;;;;;;29.50;99.90;;;;;;5029152;28;19911;-58
2023/09/25 11:17:10;;;;;;;;;;;29.60;99.90;;;;;;5024035;28;19905;-57
2023/09/25 11:19:36;;;;;;;;;;;29.60;99.90;;;;;;5027799;28;19910;-58
2023/09/25 11:22:03;;;;;;;;;;;29.60;99.90;;;;;;5029202;28;19911;-58
2023/09/25 11:24:30;;;;;;;;;;;29.70;99.90;;;;;;5026299;28;19963;-58
2023/09/25 11:26:57;;;;;;;;;;;29.70;99.90;;;;;;5025291;28;19952;-58
2023/09/25 11:29:29;;;;;;;;;;;29.80;99.90;;;;;;5028026;28;19913;-58
2023/09/25 11:31:55;;;;;;;;;;;29.80;99.90;;;;;;5026866;28;19912;-58
2023/09/25 11:34:21;;;;;;;;;;;29.90;99.90;;;;;;5028571;28;19905;-57
2023/09/25 11:36:47;;;;;;;;;;;29.90;99.90;;;;;;5027235;28;19973;-56
2023/09/25 11:39:16;;;;;;;;;;;30.00;99.90;;;;;;5027939;28;19905;-58
2023/09/25 11:41:42;;;;;;;;;;;30.00;99.90;;;;;;5028930;28;19960;-57
2023/09/25 11:44:09;;;;;;;;;;;30.00;99.90;;;;;;5026228;28;19944;-59
2023/09/25 11:46:35;;;;;;;;;;;30.00;99.90;;;;;;5027192;28;20367;-58
2023/09/25 11:49:00;;;;;;;;;;;30.00;99.90;;;;;;5026928;28;20012;-60
2023/09/25 11:51:26;;;;;;;;;;;30.00;99.90;;;;;;5030061;28;20401;-59
2023/09/25 11:53:52;;;;;;;;;;;29.90;99.90;;;;;;5012362;28;19905;-60
2023/09/25 11:56:18;;;;;;;;;;;29.90;99.90;;;;;;5025683;28;19913;-60
2023/09/25 11:58:44;;;;;;;;;;;29.90;99.90;;;;;;5028810;28;19913;-59
2023/09/25 12:01:10;;;;;;;;;;;29.90;99.90;;;;;;5030046;28;19917;-59
2023/09/25 12:03:38;;;;;;;;;;;29.90;99.90;;;;;;5025390;28;19917;-59
2023/09/25 12:06:05;;;;;;;;;;;29.90;99.90;;;;;;5027835;28;19909;-59
2023/09/25 12:08:31;;;;;;;;;;;29.90;99.90;;;;;;5011678;28;19905;-58
2023/09/25 12:10:56;;;;;;;;;;;29.90;99.90;;;;;;5027330;28;19951;-58
2023/09/25 12:13:22;;;;;;;;;;;29.90;99.90;;;;;;5011914;28;19913;-58
2023/09/25 12:15:48;;;;;;;;;;;29.90;99.90;;;;;;5027252;28;19917;-58
2023/09/25 12:18:13;;;;;;;;;;;29.90;99.90;;;;;;5028826;28;20330;-58
2023/09/25 12:20:41;;;;;;;;;;;29.90;99.90;;;;;;5027515;28;19952;-59
2023/09/25 12:23:07;;;;;;;;;;;29.80;99.90;;;;;;5029398;28;20289;-58
2023/09/25 12:25:33;;;;;;;;;;;29.80;99.90;;;;;;5028520;28;19905;-59
2023/09/25 12:27:59;;;;;;;;;;;29.80;99.90;;;;;;5029834;28;19928;-58
2023/09/25 12:30:25;;;;;;;;;;;29.80;99.90;;;;;;5022373;28;20434;-58
2023/09/25 12:32:50;;;;;;;;;;;29.80;99.90;;;;;;5029990;28;20373;-58
2023/09/25 12:35:16;;;;;;;;;;;29.80;99.90;;;;;;5030078;28;19909;-59
2023/09/25 12:37:42;;;;;;;;;;;29.90;99.90;;;;;;5027306;28;20366;-58
2023/09/25 12:40:09;;;;;;;;;;;29.90;99.90;;;;;;5029311;28;19924;-58
2023/09/25 12:42:34;;;;;;;;;;;29.90;99.90;;;;;;5034025;28;20371;-60
2023/09/25 12:45:00;;;;;;;;;;;29.90;99.90;;;;;;5034017;28;19912;-58
2023/09/25 12:47:26;;;;;;;;;;;29.90;99.90;;;;;;5012188;28;19919;-58
2023/09/25 12:49:52;;;;;;;;;;;29.90;99.90;;;;;;5029408;28;20449;-59
2023/09/25 12:52:18;;;;;;;;;;;30.00;99.90;;;;;;5028876;28;20294;-58
2023/09/25 12:54:44;;;;;;;;;;;30.00;99.90;;;;;;5014250;28;19913;-59
2023/09/25 12:57:09;;;;;;;;;;;30.00;99.90;;;;;;5032649;28;19913;-60
2023/09/25 12:59:35;;;;;;;;;;;29.90;99.90;;;;;;5024750;28;20634;-59
2023/09/25 13:02:01;;;;;;;;;;;30.00;99.90;;;;;;5031839;28;20457;-60
2023/09/25 13:04:27;;;;;;;;;;;30.00;99.90;;;;;;5033236;28;19905;-60
2023/09/25 13:06:54;;;;;;;;;;;30.00;99.90;;;;;;5033401;28;19909;-60
2023/09/25 13:09:20;;;;;;;;;;;30.00;99.90;;;;;;5029701;28;19908;-58
2023/09/25 13:11:47;;;;;;;;;;;30.10;99.90;;;;;;5027936;28;20015;-57
2023/09/25 13:14:13;;;;;;;;;;;30.10;99.90;;;;;;5029982;28;19912;-58
2023/09/25 13:16:39;;;;;;;;;;;30.10;99.90;;;;;;5031048;28;19909;-57
2023/09/25 13:19:05;;;;;;;;;;;30.20;99.90;;;;;;5030460;28;20376;-57
2023/09/25 13:21:30;;;;;;;;;;;30.20;99.90;;;;;;5030539;28;19913;-58
2023/09/25 13:23:59;;;;;;;;;;;30.20;99.90;;;;;;5030667;28;20267;-57
2023/09/25 13:26:25;;;;;;;;;;;30.20;99.90;;;;;;5029715;28;20148;-60
2023/09/25 13:28:51;;;;;;;;;;;30.20;99.90;;;;;;5024068;28;19921;-60
2023/09/25 13:31:17;;;;;;;;;;;30.20;99.90;;;;;;5023114;28;19986;-58
2023/09/25 13:33:42;;;;;;;;;;;30.20;99.90;;;;;;5024801;28;20404;-58
2023/09/25 13:36:08;;;;;;;;;;;30.20;99.90;;;;;;5028611;28;19909;-58
2023/09/25 13:38:34;;;;;;;;;;;30.20;99.90;;;;;;5029311;28;19995;-58
2023/09/25 13:40:59;;;;;;;;;;;30.20;99.90;;;;;;5030933;28;19919;-58
2023/09/25 13:43:27;;;;;;;;;;;30.10;99.90;;;;;;5029291;28;20355;-57
2023/09/25 13:45:54;;;;;;;;;;;30.10;99.90;;;;;;5031369;28;19912;-58
2023/09/25 13:48:20;;;;;;;;;;;30.00;99.90;;;;;;5024432;28;19909;-58
2023/09/25 13:50:45;;;;;;;;;;;30.00;99.90;;;;;;5031320;28;19913;-57
2023/09/25 13:53:11;;;;;;;;;;;30.00;99.90;;;;;;5027824;28;19905;-59
2023/09/25 13:55:37;;;;;;;;;;;29.90;99.90;;;;;;5013900;28;19909;-60
2023/09/25 13:58:03;;;;;;;;;;;29.90;99.90;;;;;;5031101;28;20007;-62
2023/09/25 14:00:30;;;;;;;;;;;29.90;99.90;;;;;;5030623;28;20375;-62
2023/09/25 14:02:55;;;;;;;;;;;29.80;99.90;;;;;;5029784;28;19960;-62
2023/09/25 14:05:22;;;;;;;;;;;29.80;99.90;;;;;;5010996;28;19994;-62
2023/09/25 14:07:48;;;;;;;;;;;29.80;99.90;;;;;;5013832;28;20294;-63
2023/09/25 14:10:13;;;;;;;;;;;29.70;99.90;;;;;;5030634;28;19911;-62